Time;durP1;ratioP1;P1;durP2;ratioP2;P2;SDS_P1;SDS_P2;PMS_P1;PMS_P2;Temp;Humidity;BMP_temperature;BMP_pressure;BME280_temperature;BME280_humidity;BME280_pressure;Samples;Min_cycle;Max_cycle;Signal;HPM_P1;HPM_P2
2023/08/28 00:00:21;;;;;;;11.48;8.10;;;;;;;;;;5073464;28;20401;-73
2023/08/28 00:03:07;;;;;;;12.00;8.45;;;;;;;;;;5073824;28;20036;-74
2023/08/28 00:05:52;;;;;;;13.85;9.02;;;;;;;;;;5065293;28;20045;-73
2023/08/28 00:08:38;;;;;;;14.07;8.63;;;;;;;;;;5058487;28;20378;-73
2023/08/28 00:11:23;;;;;;;14.18;8.60;;;;;;;;;;5072927;28;20052;-73
2023/08/28 00:14:09;;;;;;;15.15;8.73;;;;;;;;;;5073668;28;20056;-73
2023/08/28 00:16:54;;;;;;;14.00;8.32;;;;;;;;;;5073424;28;20056;-74
2023/08/28 00:19:40;;;;;;;12.05;8.02;;;;;;;;;;5073480;28;20045;-73
2023/08/28 00:22:25;;;;;;;11.70;8.25;;;;;;;;;;5065038;28;20060;-74
2023/08/28 00:25:12;;;;;;;13.85;8.57;;;;;;;;;;5073258;28;20398;-73
2023/08/28 00:27:58;;;;;;;12.57;8.40;;;;;;;;;;5073291;28;20052;-73
2023/08/28 00:30:43;;;;;;;13.25;8.15;;;;;;;;;;5064534;28;20041;-75
2023/08/28 00:33:29;;;;;;;12.75;7.63;;;;;;;;;;5072842;28;20044;-73
2023/08/28 00:36:16;;;;;;;11.63;8.20;;;;;;;;;;5073021;28;20044;-73
2023/08/28 00:39:02;;;;;;;15.18;9.23;;;;;;;;;;5064461;28;20044;-74
2023/08/28 00:41:47;;;;;;;14.98;8.60;;;;;;;;;;5064629;28;20056;-74
2023/08/28 00:44:33;;;;;;;13.05;8.60;;;;;;;;;;5064756;28;20048;-74
2023/08/28 00:47:19;;;;;;;11.15;8.13;;;;;;;;;;5072568;28;20401;-74
2023/08/28 00:50:05;;;;;;;14.05;8.82;;;;;;;;;;5072903;28;20052;-74
2023/08/28 00:52:50;;;;;;;12.30;9.77;;;;;;;;;;5072586;28;20044;-74
2023/08/28 00:55:36;;;;;;;19.17;9.32;;;;;;;;;;5064181;28;20394;-74
2023/08/28 00:58:21;;;;;;;17.63;8.55;;;;;;;;;;5072751;28;20044;-75
2023/08/28 01:01:07;;;;;;;13.45;7.97;;;;;;;;;;5072319;28;20048;-75
2023/08/28 01:03:52;;;;;;;14.18;8.52;;;;;;;;;;5064399;28;20056;-74
2023/08/28 01:06:51;;;;;;;11.68;8.30;;;;;;;;;;5063803;28;20041;-74
2023/08/28 01:09:48;;;;;;;10.38;8.05;;;;;;;;;;5072212;28;20481;-74
2023/08/28 01:12:59;;;;;;;14.25;8.43;;;;;;;;;;5071895;28;20081;-75
2023/08/28 01:15:45;;;;;;;14.13;8.48;;;;;;;;;;5063676;28;20056;-74
2023/08/28 01:18:31;;;;;;;10.77;8.15;;;;;;;;;;5063150;28;20036;-75
2023/08/28 01:21:17;;;;;;;12.88;8.90;;;;;;;;;;5063349;28;20048;-74
2023/08/28 01:24:08;;;;;;;14.15;8.43;;;;;;;;;;5063725;28;20481;-74
2023/08/28 01:26:55;;;;;;;12.63;8.50;;;;;;;;;;5072208;28;20064;-75
2023/08/28 01:29:40;;;;;;;16.05;9.52;;;;;;;;;;5071964;28;20505;-74
2023/08/28 01:32:26;;;;;;;19.20;8.38;;;;;;;;;;5071707;28;20037;-74
2023/08/28 01:35:21;;;;;;;16.08;8.45;;;;;;;;;;5063283;28;20050;-74
2023/08/28 01:38:30;;;;;;;15.60;9.10;;;;;;;;;;5063437;28;20044;-74
2023/08/28 01:41:18;;;;;;;12.07;8.57;;;;;;;;;;5056640;28;20041;-74
2023/08/28 01:44:07;;;;;;;11.85;8.43;;;;;;;;;;5063035;28;20041;-74
2023/08/28 01:46:53;;;;;;;13.60;8.68;;;;;;;;;;5071501;28;20048;-75
2023/08/28 01:49:39;;;;;;;17.15;9.40;;;;;;;;;;5071483;28;20115;-74
2023/08/28 01:52:25;;;;;;;12.80;8.93;;;;;;;;;;5062908;28;20409;-74
2023/08/28 01:55:11;;;;;;;12.75;8.60;;;;;;;;;;5071321;28;20053;-74
2023/08/28 01:57:57;;;;;;;14.65;9.10;;;;;;;;;;5063219;28;20485;-74
2023/08/28 02:00:43;;;;;;;14.93;9.02;;;;;;;;;;5063046;28;20040;-75
2023/08/28 02:03:30;;;;;;;14.30;8.80;;;;;;;;;;5071325;28;20053;-75
2023/08/28 02:06:15;;;;;;;16.15;8.98;;;;;;;;;;5062986;28;20040;-75
2023/08/28 02:09:01;;;;;;;14.73;9.57;;;;;;;;;;5062876;28;20398;-74
2023/08/28 02:11:46;;;;;;;16.15;9.10;;;;;;;;;;5060217;28;20044;-74
2023/08/28 02:14:32;;;;;;;13.55;8.98;;;;;;;;;;5071517;28;20044;-74
2023/08/28 02:17:17;;;;;;;16.95;9.15;;;;;;;;;;5062626;28;20044;-74
2023/08/28 02:20:04;;;;;;;13.20;8.63;;;;;;;;;;5062724;28;20048;-76
2023/08/28 02:22:48;;;;;;;12.65;9.27;;;;;;;;;;5062586;28;20060;-75
2023/08/28 02:25:34;;;;;;;15.27;9.93;;;;;;;;;;5062797;28;20036;-75
2023/08/28 02:28:20;;;;;;;11.95;9.48;;;;;;;;;;5070616;28;20048;-75
2023/08/28 02:31:06;;;;;;;14.18;9.48;;;;;;;;;;5067671;28;20045;-76
2023/08/28 02:33:51;;;;;;;13.48;9.88;;;;;;;;;;5069339;28;20045;-74
2023/08/28 02:36:37;;;;;;;13.18;9.25;;;;;;;;;;5069388;28;20036;-75
2023/08/28 02:39:22;;;;;;;14.32;9.20;;;;;;;;;;5069309;28;20389;-75
2023/08/28 02:42:08;;;;;;;18.15;10.20;;;;;;;;;;5077520;28;20048;-74
2023/08/28 02:44:53;;;;;;;15.25;10.18;;;;;;;;;;5069244;28;20048;-74
2023/08/28 02:47:38;;;;;;;15.82;9.18;;;;;;;;;;5077194;28;20420;-73
2023/08/28 02:50:23;;;;;;;14.40;9.55;;;;;;;;;;5069222;28;20057;-74
2023/08/28 02:53:09;;;;;;;13.02;8.88;;;;;;;;;;5069292;28;20048;-76
2023/08/28 02:56:21;;;;;;;12.57;9.02;;;;;;;;;;5068983;28;20393;-75
2023/08/28 02:59:06;;;;;;;16.75;9.65;;;;;;;;;;5055060;28;20048;-73
2023/08/28 03:01:52;;;;;;;18.00;9.10;;;;;;;;;;5069054;28;20053;-73
2023/08/28 03:04:39;;;;;;;15.30;9.30;;;;;;;;;;5077387;28;20393;-73
2023/08/28 03:07:24;;;;;;;12.43;9.07;;;;;;;;;;5068752;28;20052;-74
2023/08/28 03:10:09;;;;;;;19.55;9.77;;;;;;;;;;5068924;28;20056;-73
2023/08/28 03:12:55;;;;;;;19.23;9.38;;;;;;;;;;5062656;28;20052;-74
2023/08/28 03:15:42;;;;;;;17.65;9.43;;;;;;;;;;5069076;28;20036;-74
2023/08/28 03:18:27;;;;;;;13.90;8.68;;;;;;;;;;5076905;28;20048;-75
2023/08/28 03:21:13;;;;;;;15.60;9.70;;;;;;;;;;5069207;28;20048;-74
2023/08/28 03:23:58;;;;;;;15.13;9.73;;;;;;;;;;5068865;28;20044;-75
2023/08/28 03:26:44;;;;;;;13.60;9.05;;;;;;;;;;5068969;28;20044;-74
2023/08/28 03:29:29;;;;;;;18.13;9.18;;;;;;;;;;5077312;28;20040;-75
2023/08/28 03:32:15;;;;;;;18.42;8.88;;;;;;;;;;5077006;28;20423;-75
2023/08/28 03:35:00;;;;;;;15.82;9.27;;;;;;;;;;5068517;28;20048;-74
2023/08/28 03:37:46;;;;;;;15.50;9.98;;;;;;;;;;5077077;28;20041;-75
2023/08/28 03:40:32;;;;;;;13.30;9.25;;;;;;;;;;5068817;28;20489;-75
2023/08/28 03:43:18;;;;;;;16.08;9.02;;;;;;;;;;5073352;28;20040;-74
2023/08/28 03:46:03;;;;;;;16.33;9.82;;;;;;;;;;5073798;28;20044;-76
2023/08/28 03:48:48;;;;;;;15.82;9.02;;;;;;;;;;5065080;28;20049;-74
2023/08/28 03:51:34;;;;;;;19.27;9.52;;;;;;;;;;5073303;28;20049;-76
2023/08/28 03:54:19;;;;;;;22.17;10.18;;;;;;;;;;5065319;28;20052;-77
2023/08/28 03:57:06;;;;;;;16.70;10.15;;;;;;;;;;5073145;28;20044;-76
2023/08/28 03:59:52;;;;;;;17.45;10.18;;;;;;;;;;5079032;28;20048;-77
2023/08/28 04:02:38;;;;;;;15.70;9.60;;;;;;;;;;5065157;28;20045;-78
2023/08/28 04:05:23;;;;;;;15.88;9.30;;;;;;;;;;5065256;28;20643;-76
2023/08/28 04:08:09;;;;;;;14.82;9.82;;;;;;;;;;5073272;28;20477;-76
2023/08/28 04:10:57;;;;;;;16.15;8.93;;;;;;;;;;5064495;28;20048;-77
2023/08/28 04:13:42;;;;;;;16.02;9.73;;;;;;;;;;5064495;28;20048;-76
2023/08/28 04:16:27;;;;;;;14.10;8.90;;;;;;;;;;5073464;28;20041;-77
2023/08/28 04:19:13;;;;;;;13.98;9.05;;;;;;;;;;5064357;28;20484;-76
2023/08/28 04:21:59;;;;;;;17.45;9.90;;;;;;;;;;5064836;28;20052;-76
2023/08/28 04:24:45;;;;;;;14.80;9.00;;;;;;;;;;5064806;28;20044;-75
2023/08/28 04:27:31;;;;;;;14.50;9.48;;;;;;;;;;5064248;28;20477;-75
2023/08/28 04:30:16;;;;;;;12.45;9.48;;;;;;;;;;5051070;28;20709;-75
2023/08/28 04:33:02;;;;;;;11.32;8.98;;;;;;;;;;5064617;28;20405;-75
2023/08/28 04:35:48;;;;;;;14.60;10.73;;;;;;;;;;5072926;28;20045;-74
2023/08/28 04:38:33;;;;;;;30.55;21.00;;;;;;;;;;5064650;28;20040;-75
2023/08/28 04:41:19;;;;;;;23.88;14.13;;;;;;;;;;5066505;28;20048;-74
2023/08/28 04:44:04;;;;;;;20.25;12.93;;;;;;;;;;5066855;28;20040;-74
2023/08/28 04:46:50;;;;;;;14.85;9.48;;;;;;;;;;5066612;28;20040;-74
2023/08/28 04:49:35;;;;;;;16.52;10.02;;;;;;;;;;5074507;28;20036;-75
2023/08/28 04:52:22;;;;;;;17.23;10.40;;;;;;;;;;5066442;28;20481;-73
2023/08/28 04:55:07;;;;;;;16.95;9.80;;;;;;;;;;5065786;28;20414;-74
2023/08/28 04:57:53;;;;;;;21.90;10.18;;;;;;;;;;5074968;28;20401;-75
2023/08/28 05:00:39;;;;;;;20.95;9.60;;;;;;;;;;5081796;28;20040;-75
2023/08/28 05:03:24;;;;;;;16.40;9.50;;;;;;;;;;5066561;28;20401;-73
2023/08/28 05:06:11;;;;;;;15.85;9.20;;;;;;;;;;5066082;28;20482;-74
2023/08/28 05:08:57;;;;;;;12.38;8.65;;;;;;;;;;5066337;28;20040;-74
2023/08/28 05:11:42;;;;;;;17.52;9.15;;;;;;;;;;5063507;28;20052;-76
2023/08/28 05:14:28;;;;;;;15.75;8.88;;;;;;;;;;5074367;28;20040;-76
2023/08/28 05:17:13;;;;;;;17.73;9.25;;;;;;;;;;5074508;28;20041;-75
2023/08/28 05:19:59;;;;;;;18.20;9.05;;;;;;;;;;5066005;28;20048;-76
2023/08/28 05:22:46;;;;;;;12.05;9.07;;;;;;;;;;5065912;28;20045;-75
2023/08/28 05:25:31;;;;;;;14.40;9.07;;;;;;;;;;5074747;28;20462;-74
2023/08/28 05:28:17;;;;;;;14.50;8.95;;;;;;;;;;5066191;28;20048;-76
2023/08/28 05:31:03;;;;;;;21.67;9.23;;;;;;;;;;5066280;28;20048;-76
2023/08/28 05:33:49;;;;;;;19.63;9.25;;;;;;;;;;5065610;28;20037;-75
2023/08/28 05:36:34;;;;;;;13.65;8.20;;;;;;;;;;5065613;28;20045;-75
2023/08/28 05:39:19;;;;;;;14.45;9.90;;;;;;;;;;5065261;28;20040;-75
2023/08/28 05:42:04;;;;;;;17.83;9.68;;;;;;;;;;5059079;28;20092;-75
2023/08/28 05:44:49;;;;;;;15.57;9.93;;;;;;;;;;5073637;28;20048;-75
2023/08/28 05:47:36;;;;;;;20.77;10.27;;;;;;;;;;5073511;28;20048;-75
2023/08/28 05:50:21;;;;;;;19.85;10.93;;;;;;;;;;5073770;28;20049;-74
2023/08/28 05:53:07;;;;;;;15.85;10.48;;;;;;;;;;5065588;28;20044;-75
2023/08/28 05:55:52;;;;;;;20.10;9.93;;;;;;;;;;5065146;28;20401;-75
2023/08/28 05:58:37;;;;;;;15.63;9.82;;;;;;;;;;5061772;28;20040;-75
2023/08/28 06:01:23;;;;;;;13.52;9.27;;;;;;;;;;5070948;28;20049;-75
2023/08/28 06:04:09;;;;;;;19.95;9.43;;;;;;;;;;5071801;28;20053;-75
2023/08/28 06:06:55;;;;;;;13.02;9.38;;;;;;;;;;5065506;28;20478;-74
2023/08/28 06:09:44;;;;;;;18.00;9.82;;;;;;;;;;5072658;28;20036;-74
2023/08/28 06:12:29;;;;;;;14.88;9.23;;;;;;;;;;5059728;28;20053;-74
2023/08/28 06:15:21;;;;;;;18.60;9.82;;;;;;;;;;5063912;28;20044;-74
2023/08/28 06:18:06;;;;;;;20.17;10.80;;;;;;;;;;5065138;28;20040;-74
2023/08/28 06:20:52;;;;;;;25.88;11.63;;;;;;;;;;5078942;28;20477;-74
2023/08/28 06:23:37;;;;;;;24.50;12.43;;;;;;;;;;5072740;28;20397;-75
2023/08/28 06:26:23;;;;;;;19.05;9.43;;;;;;;;;;5064676;28;20048;-75
2023/08/28 06:29:09;;;;;;;14.77;8.25;;;;;;;;;;5072836;28;20032;-75
2023/08/28 06:31:55;;;;;;;16.85;10.05;;;;;;;;;;5063646;28;20048;-75
2023/08/28 06:34:41;;;;;;;21.50;9.30;;;;;;;;;;5079388;28;20048;-75
2023/08/28 06:37:26;;;;;;;18.77;8.23;;;;;;;;;;5079176;28;20044;-74
2023/08/28 06:40:13;;;;;;;15.50;8.57;;;;;;;;;;5072872;28;20036;-73
2023/08/28 06:42:58;;;;;;;19.75;8.90;;;;;;;;;;5072782;28;20048;-74
2023/08/28 06:45:45;;;;;;;13.60;8.73;;;;;;;;;;5072512;28;20053;-74
2023/08/28 06:48:30;;;;;;;18.08;8.70;;;;;;;;;;5078659;28;20057;-73
2023/08/28 06:51:16;;;;;;;23.83;9.00;;;;;;;;;;5071674;28;20040;-74
2023/08/28 06:54:02;;;;;;;18.60;8.40;;;;;;;;;;5077184;28;20044;-74
2023/08/28 06:56:47;;;;;;;17.42;9.00;;;;;;;;;;5070450;28;20045;-75
2023/08/28 06:59:33;;;;;;;23.23;8.90;;;;;;;;;;5076599;28;20052;-74
2023/08/28 07:02:19;;;;;;;16.05;8.98;;;;;;;;;;5066223;28;20425;-75
2023/08/28 07:05:04;;;;;;;19.23;9.15;;;;;;;;;;5069424;28;20045;-74
2023/08/28 07:07:50;;;;;;;20.45;9.00;;;;;;;;;;5071308;28;20048;-75
2023/08/28 07:10:36;;;;;;;17.33;8.65;;;;;;;;;;5071305;28;20044;-75
2023/08/28 07:13:22;;;;;;;17.63;7.97;;;;;;;;;;5077466;28;20493;-75
2023/08/28 07:16:07;;;;;;;12.20;6.88;;;;;;;;;;5077003;28;20048;-76
2023/08/28 07:18:53;;;;;;;8.40;5.00;;;;;;;;;;5081851;28;20052;-75
2023/08/28 07:21:39;;;;;;;9.70;4.70;;;;;;;;;;5081490;28;20528;-76
2023/08/28 07:24:24;;;;;;;9.93;4.55;;;;;;;;;;5074477;28;20056;-76
2023/08/28 07:27:10;;;;;;;6.40;3.92;;;;;;;;;;5074868;28;20037;-76
2023/08/28 07:29:56;;;;;;;7.70;4.28;;;;;;;;;;5074675;28;20405;-75
2023/08/28 07:32:41;;;;;;;13.32;4.75;;;;;;;;;;5074460;28;20044;-75
2023/08/28 07:35:29;;;;;;;7.28;4.25;;;;;;;;;;5074386;28;20044;-76
2023/08/28 07:38:15;;;;;;;7.78;4.68;;;;;;;;;;5081108;28;20044;-75
2023/08/28 07:41:00;;;;;;;9.18;4.45;;;;;;;;;;5072743;28;20478;-75
2023/08/28 07:43:45;;;;;;;8.70;4.60;;;;;;;;;;5073127;28;20048;-75
2023/08/28 07:46:31;;;;;;;8.27;4.45;;;;;;;;;;5074157;28;20053;-75
2023/08/28 07:49:17;;;;;;;10.30;5.20;;;;;;;;;;5074150;28;20486;-75
2023/08/28 07:52:05;;;;;;;17.02;4.93;;;;;;;;;;5080859;28;20048;-76
2023/08/28 07:54:49;;;;;;;14.07;4.90;;;;;;;;;;5074238;28;20045;-75
2023/08/28 07:57:35;;;;;;;11.05;4.85;;;;;;;;;;5080708;28;20040;-75
2023/08/28 08:00:22;;;;;;;8.80;4.57;;;;;;;;;;5080706;28;20045;-75
2023/08/28 08:03:06;;;;;;;10.70;4.35;;;;;;;;;;5080278;28;20044;-75
2023/08/28 08:05:52;;;;;;;10.60;5.30;;;;;;;;;;5080819;28;20049;-75
2023/08/28 08:08:38;;;;;;;14.10;4.90;;;;;;;;;;5081050;28;20044;-75
2023/08/28 08:11:23;;;;;;;9.35;4.75;;;;;;;;;;5078867;28;20045;-75
2023/08/28 08:14:09;;;;;;;10.07;5.40;;;;;;;;;;5073582;28;20052;-75
2023/08/28 08:16:55;;;;;;;10.68;4.88;;;;;;;;;;5080422;28;20049;-74
2023/08/28 08:19:40;;;;;;;8.48;5.10;;;;;;;;;;5073818;28;20409;-74
2023/08/28 08:22:25;;;;;;;8.50;4.82;;;;;;;;;;5073782;28;20033;-75
2023/08/28 08:25:13;;;;;;;7.65;5.28;;;;;;;;;;5073838;28;20576;-76
2023/08/28 08:27:57;;;;;;;8.98;5.40;;;;;;;;;;5064966;28;20036;-77
2023/08/28 08:30:43;;;;;;;10.20;5.18;;;;;;;;;;5073466;28;20044;-75
2023/08/28 08:33:29;;;;;;;6.88;4.78;;;;;;;;;;5079897;28;20041;-76
2023/08/28 08:36:16;;;;;;;13.68;5.15;;;;;;;;;;5073449;28;20041;-76
2023/08/28 08:39:03;;;;;;;13.85;5.10;;;;;;;;;;5064887;28;20041;-74
2023/08/28 08:41:48;;;;;;;13.57;5.47;;;;;;;;;;5080176;28;20048;-76
2023/08/28 08:44:34;;;;;;;10.45;4.75;;;;;;;;;;5073273;28;20454;-74
2023/08/28 08:47:20;;;;;;;12.13;5.00;;;;;;;;;;5073331;28;20405;-76
2023/08/28 08:50:08;;;;;;;10.60;5.07;;;;;;;;;;5073600;28;20045;-75
2023/08/28 08:53:03;;;;;;;12.35;5.18;;;;;;;;;;5058208;28;20052;-75
2023/08/28 08:55:53;;;;;;;9.15;4.28;;;;;;;;;;5073257;28;20489;-75
2023/08/28 08:58:40;;;;;;;11.43;4.85;;;;;;;;;;5073242;28;20044;-76
2023/08/28 09:01:26;;;;;;;14.80;5.05;;;;;;;;;;5080007;28;20048;-76
2023/08/28 09:04:12;;;;;;;13.98;5.32;;;;;;;;;;5072855;28;20040;-76
2023/08/28 09:06:58;;;;;;;12.77;5.20;;;;;;;;;;5073168;28;20474;-75
2023/08/28 09:09:44;;;;;;;9.98;4.65;;;;;;;;;;5079542;28;20052;-75
2023/08/28 09:12:30;;;;;;;14.23;5.05;;;;;;;;;;5074418;28;20048;-75
2023/08/28 09:15:16;;;;;;;9.25;5.25;;;;;;;;;;5072523;28;20040;-75
2023/08/28 09:18:01;;;;;;;10.23;4.88;;;;;;;;;;5072634;28;20041;-75
2023/08/28 09:21:07;;;;;;;12.00;5.40;;;;;;;;;;5072446;28;20045;-75
2023/08/28 09:23:53;;;;;;;12.90;5.30;;;;;;;;;;5079095;28;20040;-75
2023/08/28 09:26:38;;;;;;;8.30;4.97;;;;;;;;;;5072051;28;20036;-75
2023/08/28 09:29:24;;;;;;;11.65;5.45;;;;;;;;;;5071907;28;20044;-76
2023/08/28 09:32:09;;;;;;;9.18;4.65;;;;;;;;;;5078114;28;20033;-75
2023/08/28 09:34:54;;;;;;;9.18;4.80;;;;;;;;;;5072375;28;20045;-75
2023/08/28 09:37:40;;;;;;;8.45;4.95;;;;;;;;;;5057129;28;20053;-76
2023/08/28 09:40:33;;;;;;;8.23;4.63;;;;;;;;;;5077896;28;20048;-75
2023/08/28 09:43:18;;;;;;;11.02;5.10;;;;;;;;;;5072162;28;20044;-74
2023/08/28 09:46:05;;;;;;;8.98;4.18;;;;;;;;;;5066336;28;20065;-75
2023/08/28 09:48:53;;;;;;;10.65;5.13;;;;;;;;;;5078699;28;20493;-74
2023/08/28 09:51:48;;;;;;;11.10;4.75;;;;;;;;;;5071949;28;20040;-74
2023/08/28 09:54:32;;;;;;;;;;;;;;;;;;5071717;28;20065;-73
2023/08/28 09:57:17;;;;;;;11.13;4.93;;;;;;;;;;5072056;28;19920;-74
2023/08/28 10:00:02;;;;;;;12.32;5.00;;;;;;;;;;5071891;28;20040;-74
2023/08/28 10:02:51;;;;;;;13.45;5.22;;;;;;;;;;5077678;28;20485;-75
2023/08/28 10:05:38;;;;;;;11.95;4.90;;;;;;;;;;5071398;28;20056;-75
2023/08/28 10:08:31;;;;;;;9.23;5.03;;;;;;;;;;5071677;28;20044;-75
2023/08/28 10:11:17;;;;;;;11.75;5.10;;;;;;;;;;5071402;28;20470;-75
2023/08/28 10:14:04;;;;;;;13.55;5.93;;;;;;;;;;5071933;28;20052;-75
2023/08/28 10:16:57;;;;;;;10.02;4.78;;;;;;;;;;5078274;28;20044;-74
2023/08/28 10:19:57;;;;;;;8.52;4.95;;;;;;;;;;5071748;28;20474;-75
2023/08/28 10:22:44;;;;;;;9.25;4.45;;;;;;;;;;5071689;28;20397;-74
2023/08/28 10:25:31;;;;;;;7.63;4.50;;;;;;;;;;5078627;28;20040;-74
2023/08/28 10:28:17;;;;;;;14.50;5.30;;;;;;;;;;5078211;28;20063;-75
2023/08/28 10:31:05;;;;;;;8.10;4.68;;;;;;;;;;5078136;28;20057;-75
2023/08/28 10:33:52;;;;;;;10.35;4.72;;;;;;;;;;5077797;28;20048;-74
2023/08/28 10:36:39;;;;;;;11.77;5.25;;;;;;;;;;5071356;28;20045;-75
2023/08/28 10:39:27;;;;;;;10.45;4.93;;;;;;;;;;5056257;28;20044;-74
2023/08/28 10:42:16;;;;;;;8.18;4.35;;;;;;;;;;5070716;28;20041;-74
2023/08/28 10:45:01;;;;;;;16.17;5.00;;;;;;;;;;5065197;28;20045;-74
2023/08/28 10:47:50;;;;;;;8.15;4.43;;;;;;;;;;5077772;28;20040;-74
2023/08/28 10:50:38;;;;;;;11.73;5.22;;;;;;;;;;5071708;28;20037;-74
2023/08/28 10:53:23;;;;;;;13.05;5.50;;;;;;;;;;5081314;28;20044;-75
2023/08/28 10:56:10;;;;;;;7.85;4.47;;;;;;;;;;5074705;28;20044;-73
2023/08/28 10:59:19;;;;;;;10.57;5.25;;;;;;;;;;5075167;28;20036;-74
2023/08/28 11:02:05;;;;;;;12.45;5.32;;;;;;;;;;5074790;28;20044;-74
2023/08/28 11:04:50;;;;;;;11.23;5.38;;;;;;;;;;5074887;28;20053;-74
2023/08/28 11:07:43;;;;;;;10.35;5.15;;;;;;;;;;5074868;28;20048;-74
2023/08/28 11:10:28;;;;;;;9.00;4.43;;;;;;;;;;5081746;28;20045;-73
2023/08/28 11:13:23;;;;;;;12.23;5.40;;;;;;;;;;5074319;28;20079;-74
2023/08/28 11:16:08;;;;;;;10.70;4.97;;;;;;;;;;5074924;28;20032;-74
2023/08/28 11:18:57;;;;;;;15.88;5.05;;;;;;;;;;5074139;28;20045;-74
2023/08/28 11:21:45;;;;;;;10.25;5.00;;;;;;;;;;5081543;28;20044;-74
2023/08/28 11:24:31;;;;;;;5.63;4.05;;;;;;;;;;5074600;28;20490;-75
2023/08/28 11:27:37;;;;;;;10.57;5.20;;;;;;;;;;5081220;28;20044;-74
2023/08/28 11:30:23;;;;;;;9.65;5.22;;;;;;;;;;5081645;28;20501;-74
2023/08/28 11:33:08;;;;;;;9.07;4.32;;;;;;;;;;5073618;28;20390;-74
2023/08/28 11:36:01;;;;;;;9.35;4.82;;;;;;;;;;5081045;28;20052;-74
2023/08/28 11:38:46;;;;;;;11.05;5.72;;;;;;;;;;5081780;28;20049;-74
2023/08/28 11:41:32;;;;;;;6.63;4.45;;;;;;;;;;5065869;28;20482;-74
2023/08/28 11:44:17;;;;;;;9.90;5.32;;;;;;;;;;5072829;28;20394;-74
2023/08/28 11:47:03;;;;;;;10.55;5.00;;;;;;;;;;5073568;28;20048;-74
2023/08/28 11:49:48;;;;;;;9.77;4.85;;;;;;;;;;5073108;28;20056;-74
2023/08/28 11:52:34;;;;;;;8.55;4.38;;;;;;;;;;5072530;28;20426;-74
2023/08/28 11:55:20;;;;;;;13.23;5.50;;;;;;;;;;5080122;28;20048;-74
2023/08/28 11:58:07;;;;;;;13.65;5.65;;;;;;;;;;5073885;28;20044;-75
2023/08/28 12:00:53;;;;;;;7.60;5.25;;;;;;;;;;5074044;28;20040;-75
2023/08/28 12:03:42;;;;;;;10.45;5.70;;;;;;;;;;5079701;28;20064;-75
2023/08/28 12:06:29;;;;;;;11.57;6.05;;;;;;;;;;5080544;28;20052;-74
2023/08/28 12:09:15;;;;;;;13.90;5.60;;;;;;;;;;5073487;28;20048;-75
2023/08/28 12:12:02;;;;;;;17.77;5.88;;;;;;;;;;5058619;28;20044;-74
2023/08/28 12:14:49;;;;;;;13.15;5.40;;;;;;;;;;5073748;28;20040;-75
2023/08/28 12:17:35;;;;;;;10.77;5.63;;;;;;;;;;5073780;28;20044;-75
2023/08/28 12:20:21;;;;;;;12.63;5.75;;;;;;;;;;5080245;28;20049;-75
2023/08/28 12:23:06;;;;;;;10.35;5.40;;;;;;;;;;5080239;28;20048;-76
2023/08/28 12:25:53;;;;;;;13.20;5.53;;;;;;;;;;5073315;28;20040;-75
2023/08/28 12:28:38;;;;;;;12.10;6.07;;;;;;;;;;5073006;28;20045;-75
2023/08/28 12:31:30;;;;;;;14.55;5.82;;;;;;;;;;5073572;28;20060;-75
2023/08/28 12:34:16;;;;;;;9.70;5.03;;;;;;;;;;5079951;28;20040;-74
2023/08/28 12:37:05;;;;;;;8.55;5.78;;;;;;;;;;5079634;28;20044;-75
2023/08/28 12:39:53;;;;;;;12.93;5.47;;;;;;;;;;5080218;28;20048;-74
2023/08/28 12:42:39;;;;;;;10.35;5.70;;;;;;;;;;5073279;28;20397;-75
2023/08/28 12:45:24;;;;;;;11.30;6.25;;;;;;;;;;5058009;28;20052;-75
2023/08/28 12:48:09;;;;;;;10.32;6.05;;;;;;;;;;5073206;28;20045;-75
2023/08/28 12:50:54;;;;;;;9.27;5.72;;;;;;;;;;5080048;28;20044;-74
2023/08/28 12:53:40;;;;;;;14.73;5.93;;;;;;;;;;5078649;28;20040;-75
2023/08/28 12:56:25;;;;;;;7.03;5.22;;;;;;;;;;5072806;28;20048;-75
2023/08/28 12:59:11;;;;;;;12.90;6.10;;;;;;;;;;5079261;28;20048;-75
2023/08/28 13:01:57;;;;;;;15.65;6.28;;;;;;;;;;5079637;28;20486;-74
2023/08/28 13:04:43;;;;;;;11.25;5.55;;;;;;;;;;5072876;28;20048;-74
2023/08/28 13:07:29;;;;;;;12.93;5.57;;;;;;;;;;5072531;28;20052;-74
2023/08/28 13:10:14;;;;;;;11.27;6.40;;;;;;;;;;5079179;28;20494;-75
2023/08/28 13:13:00;;;;;;;10.60;6.18;;;;;;;;;;5072185;28;20049;-74
2023/08/28 13:15:47;;;;;;;9.27;5.57;;;;;;;;;;5078477;28;20044;-75
2023/08/28 13:18:33;;;;;;;14.00;6.43;;;;;;;;;;5072360;28;20048;-75
2023/08/28 13:21:18;;;;;;;12.43;6.65;;;;;;;;;;5079492;28;20055;-74
2023/08/28 13:24:05;;;;;;;12.20;6.28;;;;;;;;;;5072483;28;20494;-75
2023/08/28 13:26:49;;;;;;;12.68;5.90;;;;;;;;;;5072593;28;20033;-75
2023/08/28 13:29:34;;;;;;;11.13;5.57;;;;;;;;;;5079177;28;20049;-75
2023/08/28 13:32:21;;;;;;;12.98;5.60;;;;;;;;;;5072072;28;20040;-74
2023/08/28 13:35:08;;;;;;;10.13;5.82;;;;;;;;;;5078836;28;20045;-74
2023/08/28 13:37:59;;;;;;;6.97;5.10;;;;;;;;;;5072294;28;20040;-75
2023/08/28 13:40:44;;;;;;;12.27;5.47;;;;;;;;;;5071805;28;20390;-74
2023/08/28 13:43:29;;;;;;;10.73;5.97;;;;;;;;;;5071849;28;20485;-75
2023/08/28 13:46:15;;;;;;;14.10;6.63;;;;;;;;;;5078288;28;20044;-75
2023/08/28 13:49:00;;;;;;;8.88;5.30;;;;;;;;;;5078770;28;20044;-74
2023/08/28 13:51:48;;;;;;;13.55;5.95;;;;;;;;;;5072597;28;20044;-75
2023/08/28 13:54:34;;;;;;;11.35;5.90;;;;;;;;;;5078698;28;20052;-75
2023/08/28 13:57:19;;;;;;;9.35;5.10;;;;;;;;;;5073509;28;20033;-74
2023/08/28 14:00:12;;;;;;;13.25;5.80;;;;;;;;;;5073160;28;20052;-74
2023/08/28 14:03:06;;;;;;;10.65;5.88;;;;;;;;;;5073716;28;20116;-74
2023/08/28 14:05:51;;;;;;;14.60;5.40;;;;;;;;;;5073805;28;20044;-74
2023/08/28 14:08:37;;;;;;;13.77;5.88;;;;;;;;;;5073570;28;20044;-75
2023/08/28 14:11:22;;;;;;;10.98;5.43;;;;;;;;;;5078840;28;20041;-74
2023/08/28 14:14:08;;;;;;;7.88;5.43;;;;;;;;;;5080070;28;20049;-74
2023/08/28 14:16:53;;;;;;;14.45;5.88;;;;;;;;;;5080891;28;20049;-74
2023/08/28 14:19:39;;;;;;;12.82;5.40;;;;;;;;;;5079998;28;20401;-74
2023/08/28 14:22:25;;;;;;;11.95;5.10;;;;;;;;;;5077924;28;20048;-74
2023/08/28 14:25:10;;;;;;;9.73;5.50;;;;;;;;;;5077462;28;20040;-75
2023/08/28 14:27:57;;;;;;;17.08;5.55;;;;;;;;;;5071557;28;20413;-74
2023/08/28 14:30:43;;;;;;;12.38;5.68;;;;;;;;;;5071313;28;20041;-75
2023/08/28 14:33:29;;;;;;;15.20;6.05;;;;;;;;;;5071415;28;20394;-75
2023/08/28 14:36:14;;;;;;;11.70;5.75;;;;;;;;;;5078428;28;20045;-75
2023/08/28 14:39:00;;;;;;;10.55;5.60;;;;;;;;;;5063564;28;20040;-75
2023/08/28 14:41:46;;;;;;;13.20;5.47;;;;;;;;;;5071731;28;20049;-73
2023/08/28 14:44:31;;;;;;;13.88;5.70;;;;;;;;;;5071440;28;20037;-76
2023/08/28 14:47:23;;;;;;;12.07;5.65;;;;;;;;;;5071571;28;20041;-75
2023/08/28 14:50:09;;;;;;;13.93;6.05;;;;;;;;;;5066513;28;20040;-74
2023/08/28 14:52:55;;;;;;;8.25;5.50;;;;;;;;;;5071471;28;20044;-74
2023/08/28 14:55:40;;;;;;;11.32;6.68;;;;;;;;;;5078101;28;20044;-74
2023/08/28 14:58:26;;;;;;;13.13;5.55;;;;;;;;;;5071474;28;20053;-74
2023/08/28 15:01:11;;;;;;;15.07;6.20;;;;;;;;;;5077862;28;20041;-74
2023/08/28 15:03:56;;;;;;;13.52;6.75;;;;;;;;;;5072731;28;20045;-74
2023/08/28 15:06:42;;;;;;;13.73;5.45;;;;;;;;;;5073023;28;20041;-75
2023/08/28 15:09:27;;;;;;;12.45;6.10;;;;;;;;;;5073364;28;20052;-75
2023/08/28 15:12:13;;;;;;;14.43;6.68;;;;;;;;;;5073274;28;20044;-76
2023/08/28 15:14:59;;;;;;;13.50;6.47;;;;;;;;;;5067241;28;20045;-75
2023/08/28 15:17:44;;;;;;;11.05;5.80;;;;;;;;;;5073942;28;20048;-75
2023/08/28 15:20:30;;;;;;;15.50;6.68;;;;;;;;;;5074148;28;20041;-74
2023/08/28 15:23:15;;;;;;;13.88;6.90;;;;;;;;;;5080556;28;20481;-74
2023/08/28 15:26:01;;;;;;;11.55;6.55;;;;;;;;;;5073464;28;20393;-74
2023/08/28 15:28:46;;;;;;;10.20;6.40;;;;;;;;;;5073592;28;20044;-75
2023/08/28 15:31:32;;;;;;;14.65;6.70;;;;;;;;;;5057889;28;20040;-77
2023/08/28 15:34:17;;;;;;;10.70;6.00;;;;;;;;;;5079359;28;20492;-76
2023/08/28 15:37:03;;;;;;;19.30;6.28;;;;;;;;;;5072860;28;20048;-75
2023/08/28 15:39:49;;;;;;;15.30;6.30;;;;;;;;;;5075716;28;20040;-75
2023/08/28 15:42:35;;;;;;;18.38;6.78;;;;;;;;;;5076010;28;20053;-75
2023/08/28 15:45:20;;;;;;;19.38;6.38;;;;;;;;;;5075578;28;20044;-75
2023/08/28 15:48:06;;;;;;;16.77;6.20;;;;;;;;;;5074859;28;20040;-75
2023/08/28 15:50:51;;;;;;;15.52;6.60;;;;;;;;;;5074085;28;20056;-75
2023/08/28 15:53:37;;;;;;;14.82;6.88;;;;;;;;;;5081669;28;20041;-75
2023/08/28 15:56:23;;;;;;;13.70;6.60;;;;;;;;;;5076026;28;20111;-74
2023/08/28 15:59:08;;;;;;;10.48;6.85;;;;;;;;;;5082508;28;20036;-75
2023/08/28 16:01:55;;;;;;;11.90;6.53;;;;;;;;;;5082256;28;20041;-75
2023/08/28 16:04:41;;;;;;;14.68;6.28;;;;;;;;;;5075708;28;20044;-74
2023/08/28 16:07:27;;;;;;;13.55;7.00;;;;;;;;;;5075541;28;20048;-75
2023/08/28 16:10:12;;;;;;;10.10;6.68;;;;;;;;;;5075843;28;20405;-75
2023/08/28 16:12:58;;;;;;;13.30;7.15;;;;;;;;;;5075218;28;20052;-75
2023/08/28 16:15:46;;;;;;;14.15;6.85;;;;;;;;;;5075024;28;20052;-75
2023/08/28 16:18:32;;;;;;;9.10;6.47;;;;;;;;;;5082617;28;20032;-75
2023/08/28 16:21:18;;;;;;;12.55;6.30;;;;;;;;;;5075395;28;20052;-74
2023/08/28 16:24:03;;;;;;;15.68;6.88;;;;;;;;;;5070181;28;20060;-74